Brandon, Iowa
Current Conditions -  °F | °C
As of 8:15 AM on Thursday 30 Oct 2014 (Local Time) from KVTI Reporting Station
Scattered Clouds Scattered Clouds  
Wind Chill: 40°   Ceiling: Unl
Heat Index: 40°   Visibility: 10mi
Dew Point: 35°   Wind: 3mph
Humidity: 80%   Direction: 170°S
Pressure: 30.07"   Gusts: NA
Location:  42.31°N, 92°W
Report Text: KVTI 301315Z AUTO 17003KT 10SM SCT050 05/01 A3007 RMK AO2 T00450014
Loading
Personal Weather Stations






























Interactive Weather Map
Tropical Storm Tracking
New forecast layout! Learn more

10-Day Weather Forecast

Advertisements
Track Severe Weather on mobile